Time;durP1;ratioP1;P1;durP2;ratioP2;P2;SDS_P1;SDS_P2;PMS_P1;PMS_P2;Temp;Humidity;BMP_temperature;BMP_pressure;BME280_temperature;BME280_humidity;BME280_pressure;Samples;Min_cycle;Max_cycle;Signal;HPM_P1;HPM_P2
2022/04/06 00:00:55;;;;;;;14.40;11.43;;;;;;;7.99;100.00;99620.56;5042586;28;20239;-53
2022/04/06 00:03:21;;;;;;;14.93;11.93;;;;;;;8.06;100.00;99619.63;5043845;28;20228;-53
2022/04/06 00:05:48;;;;;;;14.13;11.23;;;;;;;7.92;100.00;99625.84;5035644;28;20290;-53
2022/04/06 00:08:15;;;;;;;12.80;11.07;;;;;;;7.94;100.00;99624.09;5034344;28;20231;-52
2022/04/06 00:10:42;;;;;;;11.70;10.53;;;;;;;7.95;100.00;99625.84;5036853;28;20290;-53
2022/04/06 00:13:08;;;;;;;13.93;12.43;;;;;;;7.97;100.00;99624.94;5042458;28;20245;-53
2022/04/06 00:15:35;;;;;;;12.60;11.03;;;;;;;7.98;100.00;99636.25;5035618;28;20248;-53
2022/04/06 00:18:02;;;;;;;12.17;9.50;;;;;;;7.98;100.00;99636.25;5039112;28;20238;-52
2022/04/06 00:20:28;;;;;;;11.40;10.10;;;;;;;8.00;100.00;99624.94;5042673;28;20228;-53
2022/04/06 00:22:54;;;;;;;10.50;9.40;;;;;;;8.06;100.00;99629.22;5041231;28;20282;-53
2022/04/06 00:25:22;;;;;;;10.83;9.73;;;;;;;8.02;100.00;99628.38;5032373;28;20274;-53
2022/04/06 00:27:48;;;;;;;13.80;10.50;;;;;;;8.08;100.00;99620.50;5030567;28;20297;-52
2022/04/06 00:30:15;;;;;;;10.90;9.83;;;;;;;8.13;100.00;99623.91;5041195;28;20552;-53
2022/04/06 00:32:41;;;;;;;12.33;9.97;;;;;;;8.06;100.00;99624.00;5032150;28;20335;-52
2022/04/06 00:37:52;;;;;;;11.87;9.40;;;;;;;7.91;100.00;99625.00;5030761;28;20321;-51
2022/04/06 00:40:19;;;;;;;12.80;10.13;;;;;;;7.92;100.00;99618.88;5032921;28;20248;-53
2022/04/06 00:42:47;;;;;;;12.43;10.13;;;;;;;8.08;100.00;99623.09;5035497;28;20244;-52
2022/04/06 00:45:14;;;;;;;13.63;11.73;;;;;;;7.99;100.00;99623.16;5062393;28;20803;-53
2022/04/06 00:47:40;;;;;;;13.07;11.67;;;;;;;8.09;100.00;99623.97;5046002;28;20298;-52
2022/04/06 00:50:07;;;;;;;16.63;12.63;;;;;;;8.10;100.00;99618.72;5040013;28;20282;-52
2022/04/06 00:52:34;;;;;;;15.00;12.47;;;;;;;8.07;100.00;99626.59;5039465;28;20617;-51
2022/04/06 00:55:00;;;;;;;18.67;13.13;;;;;;;8.06;100.00;99622.22;5045177;28;20236;-51
2022/04/06 00:57:27;;;;;;;17.83;14.60;;;;;;;8.06;100.00;99619.63;5050060;28;20289;-52
2022/04/06 00:59:56;;;;;;;16.03;14.13;;;;;;;8.03;100.00;99616.16;5050172;28;20298;-51
2022/04/06 01:02:22;;;;;;;16.67;13.53;;;;;;;8.09;100.00;99619.59;5039045;28;20239;-51
2022/04/06 01:04:48;;;;;;;15.93;12.87;;;;;;;8.01;100.00;99621.44;5031327;28;20239;-52
2022/04/06 01:07:15;;;;;;;16.37;13.67;;;;;;;8.06;100.00;99622.22;5043717;28;20321;-54
2022/04/06 01:09:42;;;;;;;14.70;12.73;;;;;;;8.09;100.00;99613.50;5041012;28;20309;-52
2022/04/06 01:12:08;;;;;;;15.80;13.67;;;;;;;7.99;100.00;99617.06;5041916;28;20224;-52
2022/04/06 01:14:36;;;;;;;16.43;14.00;;;;;;;8.16;100.00;99603.88;5040292;28;20733;-53
2022/04/06 01:17:07;;;;;;;18.23;13.57;;;;;;;8.17;100.00;99614.28;5043489;28;20683;-52
2022/04/06 01:19:34;;;;;;;14.60;12.43;;;;;;;8.05;100.00;99606.56;5041851;28;20588;-52
2022/04/06 01:22:01;;;;;;;15.20;13.27;;;;;;;8.05;100.00;99612.66;5044120;28;20452;-53
2022/04/06 01:24:28;;;;;;;15.00;12.27;;;;;;;8.01;100.00;99608.34;5029736;28;20232;-52
2022/04/06 01:26:55;;;;;;;15.53;12.97;;;;;;;8.13;100.00;99605.63;5041701;28;20268;-52
2022/04/06 01:29:21;;;;;;;14.63;13.10;;;;;;;8.03;100.00;99603.97;5036419;28;20729;-51
2022/04/06 01:31:48;;;;;;;15.53;13.50;;;;;;;8.11;100.00;99611.75;5041817;28;20239;-53
2022/04/06 01:34:14;;;;;;;16.47;13.60;;;;;;;8.08;100.00;99604.81;5041290;28;20293;-52
2022/04/06 01:36:40;;;;;;;16.87;14.73;;;;;;;8.01;100.00;99603.13;5042402;28;20309;-52
2022/04/06 01:39:07;;;;;;;14.33;12.77;;;;;;;8.07;100.00;99608.31;5038113;28;20277;-52
2022/04/06 01:41:35;;;;;;;17.07;14.47;;;;;;;8.13;100.00;99610.84;5047368;28;20239;-52
2022/04/06 01:44:01;;;;;;;17.67;14.93;;;;;;;8.16;100.00;99609.09;5045098;28;20725;-55
2022/04/06 01:46:28;;;;;;;16.20;14.43;;;;;;;8.11;100.00;99601.31;5047368;28;20235;-52
2022/04/06 01:54:22;;;;;;;16.27;13.03;;;;;;;8.13;100.00;99607.38;5046707;28;20330;-52
2022/04/06 01:56:50;;;;;;;18.83;15.63;;;;;;;8.10;100.00;99616.09;5042825;28;20594;-53
2022/04/06 01:59:17;;;;;;;16.53;14.17;;;;;;;8.06;100.00;99608.31;5034833;28;20306;-51
2022/04/06 02:01:44;;;;;;;17.07;14.73;;;;;;;8.03;100.00;99609.19;5047281;28;20321;-51
2022/04/06 02:04:14;;;;;;;16.00;13.23;;;;;;;8.07;100.00;99610.03;5041291;28;20228;-53
2022/04/06 02:06:40;;;;;;;16.20;13.53;;;;;;;8.02;100.00;99615.31;5043443;28;20240;-52
2022/04/06 02:09:08;;;;;;;17.67;15.03;;;;;;;8.00;100.00;99604.00;5041011;28;20271;-52
2022/04/06 02:11:34;;;;;;;18.37;15.17;;;;;;;7.99;100.00;99601.41;5023097;28;20240;-52
2022/04/06 02:14:02;;;;;;;18.70;14.60;;;;;;;8.04;100.00;99600.50;5038772;28;20257;-52
2022/04/06 02:16:29;;;;;;;18.33;13.20;;;;;;;7.95;100.00;99597.94;5045182;28;20337;-52
2022/04/06 02:18:55;;;;;;;21.53;16.30;;;;;;;7.92;100.00;99592.75;5041856;28;20243;-51
2022/04/06 02:21:22;;;;;;;17.50;14.43;;;;;;;7.94;100.00;99595.34;5043846;28;20305;-51
2022/04/06 02:23:48;;;;;;;17.40;14.07;;;;;;;7.91;100.00;99598.84;5041876;28;20243;-52
2022/04/06 02:26:14;;;;;;;16.23;14.43;;;;;;;8.00;100.00;99601.41;5040795;28;20281;-51
2022/04/06 02:28:41;;;;;;;18.63;15.53;;;;;;;7.99;100.00;99598.78;5039451;28;20231;-51
2022/04/06 02:31:08;;;;;;;19.20;15.17;;;;;;;8.02;100.00;99590.91;5045343;28;20224;-53
2022/04/06 02:33:38;;;;;;;17.53;14.43;;;;;;;7.95;100.00;99595.34;5039120;28;20240;-52
2022/04/06 02:36:05;;;;;;;18.70;14.13;;;;;;;8.00;100.00;99603.13;5053371;28;20732;-53
2022/04/06 02:38:31;;;;;;;16.70;14.70;;;;;;;7.97;100.00;99592.69;5033667;28;20256;-52
2022/04/06 02:40:57;;;;;;;17.37;13.87;;;;;;;8.02;100.00;99591.78;5033805;28;20232;-53
2022/04/06 02:43:25;;;;;;;16.00;13.90;;;;;;;7.98;100.00;99590.09;5046257;28;20588;-53
2022/04/06 02:45:51;;;;;;;16.23;14.07;;;;;;;7.99;100.00;99586.56;5025707;28;20248;-53
2022/04/06 02:48:19;;;;;;;17.00;13.83;;;;;;;7.98;100.00;99592.69;5040216;28;20252;-53
2022/04/06 02:50:45;;;;;;;15.43;13.17;;;;;;;8.21;100.00;99592.47;5042927;28;20278;-53
2022/04/06 02:53:11;;;;;;;15.07;13.47;;;;;;;8.09;100.00;99585.63;5046231;28;20232;-53
2022/04/06 02:55:38;;;;;;;18.17;13.90;;;;;;;8.06;100.00;99587.38;5045722;28;20717;-52
2022/04/06 02:58:04;;;;;;;16.87;13.63;;;;;;;8.23;100.00;99587.22;5046080;28;20263;-54
2022/04/06 03:00:32;;;;;;;15.90;13.60;;;;;;;8.16;100.00;99586.44;5045204;28;20305;-54
2022/04/06 03:02:58;;;;;;;15.03;13.43;;;;;;;8.21;100.00;99584.63;5041216;28;20259;-53
2022/04/06 03:05:26;;;;;;;17.80;14.60;;;;;;;8.15;100.00;99581.22;5044662;28;20286;-53
2022/04/06 03:07:52;;;;;;;17.03;13.30;;;;;;;8.19;100.00;99583.78;5041768;28;20247;-53
2022/04/06 03:10:19;;;;;;;14.80;13.23;;;;;;;8.25;100.00;99602.03;5035658;28;20332;-54
2022/04/06 03:12:45;;;;;;;14.70;13.13;;;;;;;8.09;100.00;99590.84;5040996;28;20231;-54
2022/04/06 03:15:12;;;;;;;14.23;12.50;;;;;;;8.12;100.00;99590.81;5036170;28;20240;-55
2022/04/06 03:17:39;;;;;;;14.70;12.50;;;;;;;8.04;100.00;99583.94;5034394;28;20556;-54
2022/04/06 03:20:07;;;;;;;15.23;13.50;;;;;;;8.08;100.00;99593.47;5037166;28;20286;-53
2022/04/06 03:22:34;;;;;;;14.70;12.93;;;;;;;8.07;100.00;99592.63;5039649;28;20691;-55
2022/04/06 03:25:01;;;;;;;13.40;12.07;;;;;;;8.02;100.00;99590.91;5035520;28;20484;-54
2022/04/06 03:27:27;;;;;;;12.10;10.83;;;;;;;8.11;100.00;99593.47;5032452;28;20266;-54
2022/04/06 03:29:54;;;;;;;13.03;11.70;;;;;;;8.10;100.00;99592.56;5039506;28;20300;-55
2022/04/06 03:32:20;;;;;;;13.33;11.73;;;;;;;8.11;100.00;99586.47;5045111;28;20689;-54
2022/04/06 03:34:47;;;;;;;14.00;12.50;;;;;;;8.07;100.00;99589.13;5044833;28;20244;-54
2022/04/06 03:37:13;;;;;;;11.67;10.33;;;;;;;8.03;100.00;99592.66;5045032;28;20252;-54
2022/04/06 03:39:41;;;;;;;12.70;11.00;;;;;;;8.03;100.00;99592.66;5037020;28;20264;-54
2022/04/06 03:42:07;;;;;;;12.60;10.90;;;;;;;8.08;100.00;99590.88;5043683;28;20286;-54
2022/04/06 03:44:34;;;;;;;15.97;11.33;;;;;;;7.96;100.00;99597.06;5044247;28;20236;-55
2022/04/06 03:47:00;;;;;;;12.67;11.47;;;;;;;7.96;100.00;99596.19;5045062;28;20240;-55
2022/04/06 03:49:26;;;;;;;15.17;12.63;;;;;;;7.96;100.00;99591.81;5043484;28;20236;-54
2022/04/06 03:51:53;;;;;;;12.70;11.10;;;;;;;7.85;100.00;99599.75;5045273;28;20663;-53
2022/04/06 03:54:19;;;;;;;11.80;10.53;;;;;;;7.94;100.00;99587.53;5042662;28;20243;-55
2022/04/06 03:56:47;;;;;;;14.07;11.57;;;;;;;7.92;100.00;99586.66;5044240;28;20263;-55
2022/04/06 03:59:13;;;;;;;14.37;11.27;;;;;;;7.86;100.00;99595.41;5042158;28;20235;-55
2022/04/06 04:01:39;;;;;;;11.77;9.50;;;;;;;7.96;100.00;99586.59;5044432;28;20285;-56
2022/04/06 04:04:06;;;;;;;15.77;11.13;;;;;;;7.81;100.00;99597.19;5044873;28;20627;-55
2022/04/06 04:06:32;;;;;;;12.17;9.73;;;;;;;7.82;100.00;99601.53;5044607;28;20244;-59
2022/04/06 04:08:59;;;;;;;13.10;8.97;;;;;;;7.88;100.00;99599.75;5043872;28;20232;-55
2022/04/06 04:11:25;;;;;;;11.60;10.27;;;;;;;7.91;100.00;99608.44;5042725;28;20268;-54
2022/04/06 04:13:53;;;;;;;16.80;11.03;;;;;;;7.91;100.00;99606.69;5043735;28;20227;-55
2022/04/06 04:16:19;;;;;;;12.57;10.60;;;;;;;7.96;100.00;99591.81;5044010;28;20379;-54
2022/04/06 04:18:45;;;;;;;10.73;9.63;;;;;;;7.98;100.00;99600.53;5043190;28;20252;-55
2022/04/06 04:23:55;;;;;;;13.63;10.03;;;;;;;7.88;100.00;99609.31;5018945;28;20390;-56
2022/04/06 04:26:22;;;;;;;10.63;9.27;;;;;;;8.03;100.00;99608.31;5011579;28;20228;-56
2022/04/06 04:28:48;;;;;;;14.57;10.23;;;;;;;8.00;100.00;99609.25;5018247;28;20231;-55
2022/04/06 04:31:17;;;;;;;10.77;9.57;;;;;;;7.95;100.00;99615.38;5040780;28;20236;-56
2022/04/06 04:33:43;;;;;;;16.03;10.23;;;;;;;7.93;100.00;99620.59;5043780;28;20689;-56
2022/04/06 04:36:10;;;;;;;14.27;10.33;;;;;;;7.92;100.00;99621.50;5043537;28;20239;-55
2022/04/06 04:38:36;;;;;;;13.43;10.30;;;;;;;7.93;100.00;99625.81;5042688;28;20239;-55
2022/04/06 04:41:03;;;;;;;13.47;9.47;;;;;;;7.96;100.00;99628.41;5040367;28;20863;-57
2022/04/06 04:43:29;;;;;;;14.60;10.83;;;;;;;7.90;100.00;99625.88;5042821;28;20289;-56
2022/04/06 04:45:56;;;;;;;17.37;11.70;;;;;;;7.83;100.00;99613.75;5043141;28;20567;-56
2022/04/06 04:48:24;;;;;;;15.77;10.37;;;;;;;7.89;100.00;99627.59;5043052;28;21726;-56
2022/04/06 04:50:50;;;;;;;13.40;11.50;;;;;;;7.85;100.00;99630.25;5043115;28;20228;-55
2022/04/06 04:53:16;;;;;;;13.90;12.43;;;;;;;7.87;100.00;99620.69;5043504;28;20659;-55
2022/04/06 04:55:43;;;;;;;13.37;11.43;;;;;;;7.88;100.00;99625.00;5043499;28;20388;-55
2022/04/06 04:58:10;;;;;;;20.80;13.07;;;;;;;7.81;100.00;99631.16;5043268;28;20227;-55
2022/04/06 05:00:36;;;;;;;12.37;11.07;;;;;;;7.84;100.00;99628.53;5041387;28;20292;-57
2022/04/06 05:03:03;;;;;;;14.27;10.77;;;;;;;7.83;100.00;99622.44;5042773;28;20232;-58
2022/04/06 05:05:31;;;;;;;14.80;11.90;;;;;;;7.85;100.00;99625.03;5043329;28;20323;-57
2022/04/06 05:07:59;;;;;;;15.67;11.53;;;;;;;7.89;100.00;99621.50;5038624;28;20483;-55
2022/04/06 05:10:26;;;;;;;17.90;11.73;;;;;;;7.83;100.00;99621.59;5037275;28;20252;-56
2022/04/06 05:12:52;;;;;;;16.50;11.33;;;;;;;7.98;100.00;99621.44;5040483;28;20741;-57
2022/04/06 05:15:19;;;;;;;14.33;11.13;;;;;;;7.94;100.00;99632.81;5029128;28;20237;-56
2022/04/06 05:17:45;;;;;;;12.57;10.43;;;;;;;7.96;100.00;99633.66;5030022;28;20243;-55
2022/04/06 05:20:12;;;;;;;13.90;10.97;;;;;;;8.00;100.00;99624.94;5038267;28;20678;-57
2022/04/06 05:22:40;;;;;;;13.33;10.03;;;;;;;8.09;100.00;99634.41;5036973;28;20693;-56
2022/04/06 05:25:08;;;;;;;15.50;10.53;;;;;;;8.23;100.00;99640.38;5043145;28;20236;-55
2022/04/06 05:27:44;;;;;;;13.07;9.93;;;;;;;8.19;100.00;99636.06;5043712;28;20297;-56
2022/04/06 05:30:11;;;;;;;11.87;9.93;;;;;;;8.25;100.00;99635.13;5043410;28;20274;-56
2022/04/06 05:32:38;;;;;;;15.13;11.23;;;;;;;8.27;100.00;99638.63;5034640;28;20660;-56
2022/04/06 05:35:06;;;;;;;11.93;10.27;;;;;;;8.25;100.00;99640.38;5043242;28;20309;-56
2022/04/06 05:37:33;;;;;;;12.67;10.00;;;;;;;8.25;100.00;99636.03;5042538;28;20628;-56
2022/04/06 05:40:01;;;;;;;15.07;9.63;;;;;;;8.30;100.00;99633.38;5041849;28;20722;-55
2022/04/06 05:42:27;;;;;;;13.03;10.50;;;;;;;8.43;100.00;99645.47;5042484;28;20569;-56
2022/04/06 05:44:54;;;;;;;11.93;9.70;;;;;;;8.43;100.00;99642.84;5041553;28;20236;-57
2022/04/06 05:47:21;;;;;;;14.10;10.77;;;;;;;8.42;100.00;99645.47;5017971;28;20228;-58
2022/04/06 05:49:47;;;;;;;10.47;9.40;;;;;;;8.54;100.00;99643.63;5035898;28;20228;-57
2022/04/06 05:52:13;;;;;;;15.70;10.53;;;;;;;8.45;100.00;99646.31;5021074;28;20701;-57
2022/04/06 05:54:40;;;;;;;13.27;10.77;;;;;;;8.39;100.00;99649.00;5009617;28;20241;-57
2022/04/06 05:57:07;;;;;;;11.87;9.60;;;;;;;8.45;100.00;99654.16;5014603;28;20355;-57
2022/04/06 05:59:36;;;;;;;11.87;9.37;;;;;;;8.45;100.00;99650.69;5010556;28;20240;-57
2022/04/06 06:02:03;;;;;;;11.73;9.57;;;;;;;8.43;100.00;99660.31;5022756;28;20239;-56
2022/04/06 06:04:29;;;;;;;11.57;9.93;;;;;;;8.45;100.00;99650.69;5033788;28;20255;-57
2022/04/06 06:06:57;;;;;;;10.87;9.87;;;;;;;8.54;100.00;99661.06;5027549;28;20260;-57
2022/04/06 06:09:23;;;;;;;14.67;10.87;;;;;;;8.57;100.00;99659.28;5032429;28;20817;-57
2022/04/06 06:11:50;;;;;;;15.53;9.80;;;;;;;8.53;100.00;99665.44;5034165;28;20646;-58
2022/04/06 06:14:17;;;;;;;16.23;12.43;;;;;;;8.50;100.00;99661.97;5040117;28;20775;-57
2022/04/06 06:16:45;;;;;;;12.40;11.03;;;;;;;8.52;100.00;99665.44;5030840;28;20236;-57
2022/04/06 06:19:11;;;;;;;12.70;10.77;;;;;;;8.52;100.00;99666.28;5037190;28;20708;-56
2022/04/06 06:21:38;;;;;;;12.20;10.27;;;;;;;8.53;100.00;99660.19;5032797;28;20220;-58
2022/04/06 06:24:06;;;;;;;16.70;13.20;;;;;;;8.47;100.00;99652.41;5040762;28;20231;-57
2022/04/06 06:26:32;;;;;;;16.53;13.17;;;;;;;8.43;100.00;99661.16;5043464;28;20244;-57
2022/04/06 06:28:59;;;;;;;14.53;12.50;;;;;;;8.41;100.00;99646.38;5046035;28;20301;-57
2022/04/06 06:31:27;;;;;;;16.97;13.17;;;;;;;8.37;100.00;99650.72;5049828;28;20237;-59
2022/04/06 06:33:54;;;;;;;19.40;14.33;;;;;;;8.40;100.00;99645.50;5051852;28;20415;-57
2022/04/06 06:36:20;;;;;;;19.33;14.47;;;;;;;8.39;100.00;99643.78;5048548;28;20525;-63
2022/04/06 06:38:47;;;;;;;21.60;14.70;;;;;;;8.41;100.00;99643.75;5048898;28;20237;-58
2022/04/06 06:41:13;;;;;;;20.90;15.00;;;;;;;8.48;100.00;99648.91;5052407;28;20247;-58
2022/04/06 06:43:40;;;;;;;21.23;13.83;;;;;;;8.67;100.00;99652.22;5054188;28;20239;-57
2022/04/06 06:46:06;;;;;;;24.27;18.17;;;;;;;8.70;100.00;99651.28;5050039;28;20334;-56
2022/04/06 06:48:34;;;;;;;17.70;15.17;;;;;;;8.73;100.00;99651.25;5040541;28;20236;-57
2022/04/06 06:51:00;;;;;;;19.10;14.40;;;;;;;8.65;100.00;99647.88;5044247;28;20297;-57
2022/04/06 06:53:27;;;;;;;21.40;14.17;;;;;;;8.69;100.00;99654.78;5047688;28;20701;-57
2022/04/06 06:55:53;;;;;;;24.70;14.63;;;;;;;8.71;100.00;99640.81;5048439;28;20267;-56
2022/04/06 06:58:19;;;;;;;19.40;14.87;;;;;;;8.77;100.00;99652.94;5037599;28;20313;-57
2022/04/06 07:00:46;;;;;;;18.83;14.90;;;;;;;8.89;100.00;99644.97;5043586;28;20298;-57
2022/04/06 07:03:12;;;;;;;20.23;15.37;;;;;;;8.85;100.00;99638.06;5044510;28;20749;-59
2022/04/06 07:05:40;;;;;;;18.27;14.93;;;;;;;9.00;100.00;99643.09;5043023;28;20790;-58
2022/04/06 07:08:07;;;;;;;21.27;15.50;;;;;;;9.00;100.00;99640.47;5044517;28;20494;-59
2022/04/06 07:10:33;;;;;;;23.57;15.70;;;;;;;9.00;100.00;99639.59;5038297;28;20351;-59
2022/04/06 07:13:00;;;;;;;23.10;15.30;;;;;;;9.11;100.00;99639.47;5045604;28;20247;-58
2022/04/06 07:15:27;;;;;;;20.27;15.03;;;;;;;9.03;100.00;99634.34;5044593;28;20285;-58
2022/04/06 07:17:54;;;;;;;17.47;14.40;;;;;;;9.14;100.00;99640.31;5043718;28;20236;-58
2022/04/06 07:20:20;;;;;;;16.40;13.93;;;;;;;9.13;100.00;99632.47;5043348;28;20235;-59
2022/04/06 07:22:48;;;;;;;21.83;15.33;;;;;;;9.26;100.00;99641.88;5043825;28;20297;-60
2022/04/06 07:25:14;;;;;;;16.77;14.50;;;;;;;9.32;100.00;99633.94;5028805;28;20544;-60
2022/04/06 07:27:41;;;;;;;17.43;14.40;;;;;;;9.34;100.00;99637.44;5046681;28;20459;-60
2022/04/06 07:30:09;;;;;;;19.33;15.00;;;;;;;9.35;100.00;99628.69;5038643;28;20282;-59
2022/04/06 07:32:36;;;;;;;21.80;14.33;;;;;;;9.39;100.00;99629.50;5038713;28;20236;-59
2022/04/06 07:35:04;;;;;;;16.33;12.80;;;;;;;9.34;100.00;99621.72;5042191;28;20285;-61
2022/04/06 07:37:35;;;;;;;21.50;14.37;;;;;;;9.44;100.00;99623.31;5056591;28;20254;-59
2022/04/06 07:40:04;;;;;;;15.30;13.47;;;;;;;9.39;100.00;99619.03;5036856;28;20749;-59
2022/04/06 07:42:30;;;;;;;17.33;13.27;;;;;;;9.64;100.00;99615.16;5035898;28;20236;-59
2022/04/06 07:44:57;;;;;;;16.13;11.90;;;;;;;9.68;100.00;99621.19;5048418;28;20239;-59
2022/04/06 07:47:30;;;;;;;24.27;15.20;;;;;;;9.61;100.00;99624.81;5045987;28;20661;-58
2022/04/06 07:49:57;;;;;;;16.43;13.43;;;;;;;9.55;100.00;99621.41;5047000;28;20236;-58
2022/04/06 07:52:23;;;;;;;19.13;12.30;;;;;;;9.70;100.00;99622.06;5049242;28;20270;-58
2022/04/06 07:54:50;;;;;;;13.80;12.27;;;;;;;9.77;100.00;99615.84;5045175;28;20772;-59
2022/04/06 07:57:20;;;;;;;14.67;12.10;;;;;;;9.86;100.00;99620.91;5044694;28;20277;-58
2022/04/06 07:59:46;;;;;;;17.50;11.47;;;;;;;9.94;100.00;99616.44;5044838;28;20594;-58
2022/04/06 08:02:13;;;;;;;14.87;11.00;;;;;;;10.01;100.00;99614.56;5044326;28;20790;-58
2022/04/06 08:04:39;;;;;;;15.13;12.03;;;;;;;10.08;100.00;99612.72;5045434;28;20243;-58
2022/04/06 08:07:06;;;;;;;18.73;11.93;;;;;;;10.22;100.00;99614.19;5044799;28;20240;-59
2022/04/06 08:09:32;;;;;;;14.17;11.43;;;;;;;10.27;100.00;99615.00;5044505;28;20285;-57
2022/04/06 08:11:59;;;;;;;12.90;10.03;;;;;;;10.37;100.00;99620.97;5044422;28;20675;-59
2022/04/06 08:14:26;;;;;;;15.60;9.83;;;;;;;10.38;100.00;99614.81;5044569;28;20235;-59
2022/04/06 08:16:55;;;;;;;16.40;11.10;;;;;;;10.56;100.00;99615.34;5045161;28;20289;-59
2022/04/06 08:19:21;;;;;;;14.23;10.73;;;;;;;10.57;100.00;99609.25;5043615;28;20663;-59
2022/04/06 08:21:47;;;;;;;16.47;10.07;;;;;;;10.59;100.00;99612.69;5044327;28;20338;-58
2022/04/06 08:24:14;;;;;;;15.47;10.77;;;;;;;10.76;100.00;99615.84;5044600;28;20281;-58
2022/04/06 08:26:40;;;;;;;12.13;9.87;;;;;;;10.89;100.00;99617.34;5040900;28;20441;-60
2022/04/06 08:29:07;;;;;;;14.57;9.33;;;;;;;10.97;100.00;99617.19;5038829;28;20278;-59
2022/04/06 08:31:35;;;;;;;10.63;9.13;;;;;;;10.97;100.00;99625.06;5039205;28;20671;-61
2022/04/06 08:34:03;;;;;;;11.03;8.77;;;;;;;10.98;98.83;99637.28;5035330;28;20282;-57
2022/04/06 08:36:29;;;;;;;13.03;9.07;;;;;;;10.88;97.66;99626.13;5043515;28;20289;-57
2022/04/06 08:38:57;;;;;;;11.20;8.17;;;;;;;10.87;97.66;99642.75;5042821;28;20247;-57
2022/04/06 08:41:26;;;;;;;14.70;9.07;;;;;;;10.70;96.34;99636.97;5042898;28;20251;-60
2022/04/06 08:43:52;;;;;;;13.93;8.73;;;;;;;10.57;97.48;99645.97;5041495;28;20235;-57
2022/04/06 08:46:20;;;;;;;13.33;7.77;;;;;;;10.64;97.41;99631.84;5032011;28;20725;-57
2022/04/06 08:48:51;;;;;;;10.23;7.57;;;;;;;10.58;96.31;99631.97;5042182;28;20232;-58
2022/04/06 08:51:19;;;;;;;14.40;8.33;;;;;;;10.47;96.57;99632.16;5039015;28;20242;-59
2022/04/06 08:53:46;;;;;;;9.80;7.50;;;;;;;10.58;97.87;99627.56;5041982;28;20260;-61
2022/04/06 08:56:14;;;;;;;10.93;7.83;;;;;;;10.54;97.67;99619.78;5043397;28;20231;-56
2022/04/06 08:58:41;;;;;;;14.80;7.63;;;;;;;10.69;95.70;99620.34;5042548;28;20247;-57
2022/04/06 09:01:07;;;;;;;11.85;8.45;;;;;;;10.84;96.18;99613.91;5040285;28;20428;-57
2022/04/06 09:03:34;;;;;;;11.80;8.70;;;;;;;10.84;94.03;99618.31;5041786;28;20424;-61
2022/04/06 09:06:03;;;;;;;12.17;7.73;;;;;;;10.87;93.26;99623.50;5042912;28;20297;-60
2022/04/06 09:08:36;;;;;;;10.10;7.00;;;;;;;10.89;93.18;99622.59;5038667;28;20682;-59
2022/04/06 09:11:10;;;;;;;11.97;8.40;;;;;;;10.94;92.05;99620.72;5035576;28;20276;-57
2022/04/06 09:13:37;;;;;;;9.20;6.67;;;;;;;10.97;93.18;99619.81;5038417;28;20234;-60
2022/04/06 09:16:04;;;;;;;11.43;6.50;;;;;;;11.06;92.03;99616.13;5030650;28;20228;-60
2022/04/06 09:18:34;;;;;;;12.03;6.90;;;;;;;11.18;92.12;99619.34;5036514;28;20232;-59
2022/04/06 09:21:01;;;;;;;11.43;7.33;;;;;;;11.12;91.38;99623.88;5042143;28;20262;-59
2022/04/06 09:23:31;;;;;;;11.87;7.17;;;;;;;11.09;89.78;99616.03;5039911;28;20274;-59
2022/04/06 09:26:02;;;;;;;10.50;7.90;;;;;;;11.22;90.54;99610.50;5042793;28;20657;-58
2022/04/06 09:28:28;;;;;;;14.30;7.68;;;;;;;11.13;91.02;99612.47;5048222;28;20408;-59
2022/04/06 09:30:54;;;;;;;10.97;7.40;;;;;;;11.35;90.07;99608.47;5037664;28;20236;-59
2022/04/06 09:33:21;;;;;;;11.40;7.07;;;;;;;11.31;88.55;99608.59;5039951;28;20232;-60
2022/04/06 09:35:48;;;;;;;16.47;8.40;;;;;;;11.39;88.34;99601.38;5041774;28;20248;-59
2022/04/06 09:38:19;;;;;;;10.80;7.63;;;;;;;11.30;88.06;99607.72;5043301;28;20248;-57
2022/04/06 09:40:47;;;;;;;10.37;6.73;;;;;;;11.24;89.15;99602.59;5049291;28;20250;-59
2022/04/06 09:43:27;;;;;;;11.07;7.20;;;;;;;11.29;86.63;99605.13;5042454;28;20227;-58
2022/04/06 09:48:54;;;;;;;13.23;7.10;;;;;;;11.22;85.35;99602.63;5025294;28;20313;-60
2022/04/06 09:51:21;;;;;;;9.90;7.40;;;;;;;11.23;85.40;99595.59;5022108;28;20231;-60
2022/04/06 09:53:49;;;;;;;8.47;6.77;;;;;;;11.09;85.40;99598.56;5017260;28;20241;-59
2022/04/06 09:56:18;;;;;;;8.10;7.30;;;;;;;11.13;85.07;99597.59;5021805;28;20237;-61
2022/04/06 09:58:45;;;;;;;12.30;6.73;;;;;;;11.08;85.20;99585.44;5017937;28;20291;-61
2022/04/06 10:01:12;;;;;;;10.10;6.60;;;;;;;11.23;85.46;99600.84;5025014;28;20734;-57
2022/04/06 10:03:39;;;;;;;7.03;6.33;;;;;;;11.25;84.03;99598.22;5025843;28;20244;-59
2022/04/06 10:06:06;;;;;;;11.23;7.97;;;;;;;11.34;84.36;99598.88;5026131;28;20319;-57
2022/04/06 10:08:34;;;;;;;10.23;7.70;;;;;;;11.46;84.97;99588.06;5027947;28;20240;-58
2022/04/06 10:11:00;;;;;;;8.63;7.47;;;;;;;11.47;83.69;99589.78;5017684;28;20243;-60
2022/04/06 10:13:30;;;;;;;9.75;6.72;;;;;;;11.49;83.95;99583.66;5024078;28;20241;-59
2022/04/06 10:15:57;;;;;;;12.85;7.72;;;;;;;11.65;83.35;99587.63;5029946;28;20323;-58
2022/04/06 10:18:24;;;;;;;16.73;8.37;;;;;;;11.60;83.02;99584.25;5026517;28;22282;-60
2022/04/06 10:20:54;;;;;;;10.90;8.27;;;;;;;11.73;83.31;99580.44;5019375;28;20328;-58
2022/04/06 10:23:36;;;;;;;11.27;7.70;;;;;;;11.62;83.95;99587.72;5026260;28;20301;-61
2022/04/06 10:26:04;;;;;;;9.63;7.23;;;;;;;11.49;83.93;99581.03;5024099;28;20279;-61
2022/04/06 10:28:34;;;;;;;9.77;7.07;;;;;;;11.60;85.19;99568.47;5024740;28;20239;-60
2022/04/06 10:31:22;;;;;;;11.43;7.40;;;;;;;11.50;83.59;99574.84;5026136;28;20286;-59
2022/04/06 10:33:49;;;;;;;10.13;6.50;;;;;;;11.41;84.01;99576.81;5029381;28;20249;-59
2022/04/06 10:36:20;;;;;;;10.27;7.20;;;;;;;11.49;82.60;99567.88;5026899;28;20245;-60
2022/04/06 10:42:15;;;;;;;13.07;8.30;;;;;;;11.47;83.86;99565.28;4962058;28;20966;-59
2022/04/06 10:45:16;;;;;;;10.88;7.90;;;;;;;11.67;79.58;99564.81;5030392;28;20492;-59
2022/04/06 10:48:08;;;;;;;9.17;6.23;;;;;;;11.75;79.25;99565.47;5008915;28;20229;-59
2022/04/06 10:50:35;;;;;;;9.68;6.10;;;;;;;12.02;78.07;99568.34;5023239;28;20220;-59
2022/04/06 10:53:26;;;;;;;6.80;6.07;;;;;;;12.24;77.00;99571.28;5024117;28;20252;-61
2022/04/06 10:55:57;;;;;;;10.47;6.33;;;;;;;12.11;74.29;99565.47;5024935;28;20324;-61
2022/04/06 10:58:26;;;;;;;12.30;6.63;;;;;;;11.95;74.25;99559.75;5024900;28;21056;-62
2022/04/06 11:01:13;;;;;;;7.95;6.45;;;;;;;11.90;75.12;99566.91;5024391;28;20446;-59
2022/04/06 11:03:45;;;;;;;8.33;6.43;;;;;;;11.79;75.76;99576.78;5026159;28;20239;-60
2022/04/06 11:06:12;;;;;;;10.20;6.90;;;;;;;11.75;77.08;99581.25;5015169;28;20255;-59
2022/04/06 11:11:38;;;;;;;7.70;6.53;;;;;;;11.62;76.76;99572.81;5025405;28;20298;-60
2022/04/06 11:14:05;;;;;;;13.10;7.13;;;;;;;11.52;76.49;99573.06;5024602;28;20224;-58
2022/04/06 11:16:45;;;;;;;11.63;7.47;;;;;;;11.45;77.52;99575.84;5027216;28;20236;-59
2022/04/06 11:19:13;;;;;;;8.87;6.33;;;;;;;11.46;79.72;99567.03;5022906;28;20288;-57
2022/04/06 11:21:50;;;;;;;12.33;6.17;;;;;;;11.50;78.53;99566.97;5014279;28;20236;-62
2022/04/06 11:24:18;;;;;;;10.13;6.63;;;;;;;11.47;78.79;99574.00;5019848;28;20660;-58
2022/04/06 11:26:45;;;;;;;13.07;7.60;;;;;;;11.38;78.61;99563.75;5030348;28;20237;-64
2022/04/06 11:29:11;;;;;;;11.50;6.40;;;;;;;11.29;79.58;99568.34;5023661;28;20236;-58
2022/04/06 11:31:55;;;;;;;10.20;6.83;;;;;;;11.21;80.55;99561.50;5024594;28;20315;-58
2022/04/06 11:34:38;;;;;;;11.07;6.80;;;;;;;11.23;81.13;99564.97;5020776;28;20260;-61
2022/04/06 11:37:06;;;;;;;10.63;7.20;;;;;;;11.33;81.34;99567.34;5016660;28;20260;-59
2022/04/06 11:39:32;;;;;;;9.13;6.53;;;;;;;11.32;81.84;99569.13;5023098;28;20951;-59
2022/04/06 11:42:00;;;;;;;10.70;7.63;;;;;;;11.35;81.30;99558.53;5019365;28;21175;-58